Time;durP1;ratioP1;P1;durP2;ratioP2;P2;SDS_P1;SDS_P2;PMS_P1;PMS_P2;Temp;Humidity;BMP_temperature;BMP_pressure;BME280_temperature;BME280_humidity;BME280_pressure;Samples;Min_cycle;Max_cycle;Signal;HPM_P1;HPM_P2
2023/07/13 00:02:07;;;;;;;7.78;2.15;;;;;;;21.13;47.80;99755.44;5054468;28;20017;-79
2023/07/13 00:04:32;;;;;;;7.15;1.70;;;;;;;21.10;48.02;99752.19;5054184;28;20055;-79
2023/07/13 00:06:58;;;;;;;3.55;1.20;;;;;;;21.01;47.55;99754.22;5054122;28;20086;-79
2023/07/13 00:09:23;;;;;;;5.60;1.00;;;;;;;20.97;47.65;99751.28;5052476;28;20036;-75
2023/07/13 00:11:54;;;;;;;2.80;1.05;;;;;;;21.11;47.58;99756.56;5052653;28;20471;-76
2023/07/13 00:14:20;;;;;;;3.42;1.23;;;;;;;21.03;47.41;99751.09;5055712;28;20045;-76
2023/07/13 00:16:45;;;;;;;4.45;1.23;;;;;;;20.99;47.80;99756.50;5053470;28;20025;-75
2023/07/13 00:19:13;;;;;;;2.90;1.02;;;;;;;20.99;47.71;99762.06;5055278;28;20156;-76
2023/07/13 00:21:39;;;;;;;5.43;1.30;;;;;;;20.95;47.31;99756.31;5049066;28;20036;-75
2023/07/13 00:24:06;;;;;;;3.92;1.17;;;;;;;20.93;47.62;99758.59;5052092;28;20529;-78
2023/07/13 00:26:32;;;;;;;6.25;1.33;;;;;;;20.93;47.55;99755.84;5052039;28;20029;-75
2023/07/13 00:28:58;;;;;;;5.18;1.10;;;;;;;20.93;48.23;99750.28;5051907;28;20036;-76
2023/07/13 00:31:23;;;;;;;8.95;2.92;;;;;;;20.84;48.00;99755.91;5052036;28;20017;-76
2023/07/13 00:33:49;;;;;;;4.25;0.85;;;;;;;20.97;47.73;99750.50;5052122;28;20044;-76
2023/07/13 00:36:14;;;;;;;4.70;1.40;;;;;;;20.80;47.93;99748.59;5051622;28;20025;-76
2023/07/13 00:38:40;;;;;;;2.45;1.10;;;;;;;20.74;48.13;99748.81;5051520;28;20033;-75
2023/07/13 00:41:05;;;;;;;4.07;1.15;;;;;;;20.66;48.06;99749.66;5053851;28;20033;-76
2023/07/13 00:43:31;;;;;;;4.47;1.40;;;;;;;20.70;48.48;99747.03;5051927;28;20048;-76
2023/07/13 00:45:56;;;;;;;2.87;0.90;;;;;;;20.72;48.29;99748.31;5051881;28;20033;-76
2023/07/13 00:48:25;;;;;;;5.00;1.40;;;;;;;20.66;48.38;99749.66;5052834;28;20346;-76
2023/07/13 00:50:54;;;;;;;1.25;0.70;;;;;;;20.52;48.47;99753.44;5050801;28;21197;-76
2023/07/13 00:53:20;;;;;;;3.42;1.20;;;;;;;20.50;48.36;99746.63;5051147;28;20025;-76
2023/07/13 00:55:48;;;;;;;4.50;2.05;;;;;;;20.25;48.34;99751.94;5050924;28;20439;-75
2023/07/13 00:58:14;;;;;;;7.28;1.58;;;;;;;20.21;48.95;99745.44;5050440;28;20056;-76
2023/07/13 01:00:40;;;;;;;6.80;1.20;;;;;;;20.32;49.04;99746.69;5049728;28;20045;-75
2023/07/13 01:03:06;;;;;;;8.02;1.05;;;;;;;20.35;49.09;99746.03;5048741;28;20040;-75
2023/07/13 01:05:33;;;;;;;8.40;2.20;;;;;;;20.37;49.20;99746.53;5049777;28;20082;-75
2023/07/13 01:08:00;;;;;;;3.17;0.80;;;;;;;20.41;49.00;99743.91;5049859;28;20033;-75
2023/07/13 01:10:26;;;;;;;2.50;1.15;;;;;;;20.22;49.04;99736.00;5049525;28;21203;-76
2023/07/13 01:12:52;;;;;;;4.63;1.23;;;;;;;20.33;48.86;99737.25;5049960;28;20028;-75
2023/07/13 01:15:41;;;;;;;4.60;1.13;;;;;;;20.52;48.61;99734.06;5049613;28;20735;-75
2023/07/13 01:18:09;;;;;;;4.45;1.10;;;;;;;20.44;48.65;99736.91;5052998;28;20060;-75
2023/07/13 01:20:35;;;;;;;3.08;1.02;;;;;;;20.37;49.32;99742.94;5048180;28;20394;-76
2023/07/13 01:23:02;;;;;;;3.63;0.90;;;;;;;20.35;49.25;99740.50;5049692;28;20029;-76
2023/07/13 01:25:27;;;;;;;13.95;2.45;;;;;;;20.25;49.33;99732.56;5049917;28;20029;-76
2023/07/13 01:27:53;;;;;;;4.55;1.30;;;;;;;20.22;49.40;99736.00;5050015;28;20021;-75
2023/07/13 01:30:18;;;;;;;2.37;0.97;;;;;;;20.29;49.20;99733.53;5049491;28;20033;-76
2023/07/13 01:32:44;;;;;;;4.07;1.02;;;;;;;20.26;49.25;99737.75;5051709;28;20017;-76
2023/07/13 01:35:09;;;;;;;4.87;1.33;;;;;;;20.11;49.05;99733.59;5049716;28;20025;-75
2023/07/13 01:37:35;;;;;;;4.22;1.23;;;;;;;20.04;49.65;99742.38;5049975;28;20021;-76
2023/07/13 01:40:03;;;;;;;2.45;0.85;;;;;;;20.00;49.51;99735.88;5047696;28;20487;-80
2023/07/13 01:42:28;;;;;;;3.95;0.90;;;;;;;19.85;49.38;99740.00;5051071;28;20029;-76
2023/07/13 01:44:54;;;;;;;13.70;2.45;;;;;;;19.91;49.90;99744.19;5050764;28;20703;-76
2023/07/13 01:47:19;;;;;;;6.67;1.07;;;;;;;19.95;50.20;99731.31;5050629;28;20449;-77
2023/07/13 01:49:46;;;;;;;16.50;1.90;;;;;;;19.91;50.03;99738.66;5050645;28;20036;-77
2023/07/13 01:52:11;;;;;;;4.47;1.00;;;;;;;19.90;49.80;99737.03;5050628;28;20262;-77
2023/07/13 01:54:36;;;;;;;12.03;1.87;;;;;;;19.91;50.00;99744.19;5050731;28;20108;-77
2023/07/13 01:57:03;;;;;;;3.55;0.88;;;;;;;19.89;50.13;99746.47;5050876;28;20025;-76
2023/07/13 01:59:28;;;;;;;3.35;1.15;;;;;;;19.87;50.13;99748.75;5049745;28;20503;-76
2023/07/13 02:01:54;;;;;;;5.33;1.40;;;;;;;19.87;50.20;99745.97;5050094;28;20100;-76
2023/07/13 02:04:19;;;;;;;2.28;0.90;;;;;;;19.91;50.05;99746.94;5050526;28;20029;-75
2023/07/13 02:06:44;;;;;;;4.90;1.92;;;;;;;19.97;49.92;99749.56;5050203;28;20398;-76
2023/07/13 02:09:10;;;;;;;2.63;0.73;;;;;;;19.83;50.06;99753.34;5051710;28;20481;-79
2023/07/13 02:11:35;;;;;;;6.97;2.17;;;;;;;19.79;50.23;99744.06;5052640;28;20320;-79
2023/07/13 02:14:01;;;;;;;2.47;1.03;;;;;;;19.75;50.31;99745.88;5052547;28;20453;-80
2023/07/13 02:16:27;;;;;;;5.22;1.08;;;;;;;19.62;50.09;99748.47;5052119;28;20270;-80
2023/07/13 02:18:52;;;;;;;5.05;0.70;;;;;;;19.43;50.94;99746.84;5052091;28;20774;-80
2023/07/13 02:21:18;;;;;;;5.47;1.75;;;;;;;19.65;51.08;99741.50;5052352;28;20024;-79
2023/07/13 02:23:43;;;;;;;2.38;0.90;;;;;;;19.64;50.53;99750.91;5056450;28;20049;-80
2023/07/13 02:26:09;;;;;;;7.97;2.95;;;;;;;19.45;51.10;99755.63;5056447;28;20079;-79
2023/07/13 02:28:34;;;;;;;1.88;0.80;;;;;;;19.51;51.10;99749.94;5056705;28;20029;-79
2023/07/13 02:31:10;;;;;;;5.33;1.20;;;;;;;19.36;51.24;99747.34;5056623;28;20489;-79
2023/07/13 02:33:35;;;;;;;6.72;1.25;;;;;;;19.39;51.35;99756.94;5061878;28;20303;-79
2023/07/13 02:36:01;;;;;;;6.07;2.00;;;;;;;19.29;51.78;99754.50;5056111;28;20017;-79
2023/07/13 02:38:27;;;;;;;4.75;0.60;;;;;;;19.23;51.65;99732.56;5056754;28;21248;-79
2023/07/13 02:40:52;;;;;;;5.97;1.42;;;;;;;19.28;51.47;99745.41;5056324;28;20029;-79
2023/07/13 02:43:17;;;;;;;5.07;1.38;;;;;;;19.24;51.57;99747.97;5055816;28;20039;-79
2023/07/13 02:45:44;;;;;;;15.20;3.13;;;;;;;19.10;52.24;99744.56;5056037;28;20036;-79
2023/07/13 02:48:09;;;;;;;3.75;1.27;;;;;;;19.25;51.96;99751.56;5056451;28;20025;-79
2023/07/13 02:50:34;;;;;;;4.30;0.80;;;;;;;19.31;51.98;99754.97;5055089;28;20046;-80
2023/07/13 02:53:00;;;;;;;4.40;1.53;;;;;;;19.22;52.10;99741.97;5056440;28;20025;-80
2023/07/13 02:55:25;;;;;;;6.70;1.17;;;;;;;19.32;52.08;99740.03;5056146;28;20055;-80
2023/07/13 02:57:50;;;;;;;3.20;1.20;;;;;;;19.24;51.87;99745.22;5056151;28;20462;-80
2023/07/13 03:00:16;;;;;;;6.10;1.35;;;;;;;19.15;52.31;99749.94;5055791;28;20028;-80
2023/07/13 03:02:41;;;;;;;8.65;2.17;;;;;;;19.05;52.48;99755.75;5055631;28;20478;-80
2023/07/13 03:05:07;;;;;;;3.70;0.90;;;;;;;18.85;53.14;99750.53;5055618;28;20546;-81
2023/07/13 03:07:32;;;;;;;11.05;2.17;;;;;;;18.69;53.79;99758.44;5056207;28;20276;-80
2023/07/13 03:09:58;;;;;;;5.35;1.40;;;;;;;18.66;53.74;99754.34;5055648;28;20029;-79
2023/07/13 03:12:24;;;;;;;4.10;1.15;;;;;;;18.53;54.46;99756.09;5055523;28;20028;-79
2023/07/13 03:14:49;;;;;;;6.85;2.05;;;;;;;18.64;54.46;99755.81;5054709;28;20060;-79
2023/07/13 03:17:15;;;;;;;3.83;1.20;;;;;;;18.76;54.45;99758.78;5057172;28;20033;-80
2023/07/13 03:19:40;;;;;;;4.80;1.43;;;;;;;18.49;54.76;99755.09;5053605;28;20037;-79
2023/07/13 03:22:06;;;;;;;7.20;1.38;;;;;;;18.63;54.67;99754.97;5054065;28;20047;-79
2023/07/13 03:24:33;;;;;;;2.67;1.08;;;;;;;18.83;54.69;99763.00;5054148;28;20116;-79
2023/07/13 03:26:58;;;;;;;4.57;1.33;;;;;;;18.82;54.42;99761.38;5054348;28;20041;-79
2023/07/13 03:29:23;;;;;;;6.63;1.20;;;;;;;18.81;53.94;99771.63;5052589;28;20039;-79
2023/07/13 03:31:48;;;;;;;1.90;0.70;;;;;;;18.74;54.65;99766.56;5054694;28;20532;-79
2023/07/13 03:34:14;;;;;;;4.37;1.27;;;;;;;18.74;54.74;99765.75;5053730;28;20340;-79
2023/07/13 03:36:39;;;;;;;5.90;2.23;;;;;;;18.77;54.65;99765.13;5054468;28;20355;-79
2023/07/13 03:39:08;;;;;;;4.93;1.23;;;;;;;18.57;55.09;99766.50;5053782;28;20258;-79
2023/07/13 03:41:33;;;;;;;4.45;0.85;;;;;;;18.62;55.18;99767.19;5055218;28;20025;-79
2023/07/13 03:43:58;;;;;;;7.75;1.30;;;;;;;18.53;55.51;99777.38;5053125;28;20035;-78
2023/07/13 03:46:24;;;;;;;3.10;1.40;;;;;;;18.58;55.69;99779.97;5053486;28;20024;-79
2023/07/13 03:48:49;;;;;;;4.72;1.27;;;;;;;18.49;55.82;99785.47;5054977;28;20281;-78
2023/07/13 03:51:16;;;;;;;4.53;2.03;;;;;;;18.37;56.27;99794.34;5054204;28;20074;-79
2023/07/13 03:53:43;;;;;;;10.55;1.23;;;;;;;18.63;55.84;99792.84;5053524;28;20305;-79
2023/07/13 03:56:09;;;;;;;5.32;1.27;;;;;;;18.43;56.44;99795.84;5052476;28;20450;-79
2023/07/13 03:58:37;;;;;;;4.43;1.02;;;;;;;18.58;56.13;99795.72;5053470;28;20079;-79
2023/07/13 04:01:05;;;;;;;6.97;0.80;;;;;;;18.60;56.25;99798.97;5053703;28;20480;-79
2023/07/13 04:03:32;;;;;;;4.38;0.98;;;;;;;18.58;56.45;99804.84;5060091;28;20032;-79
2023/07/13 04:05:59;;;;;;;7.50;2.45;;;;;;;18.66;56.03;99797.72;5053560;28;20063;-78
2023/07/13 04:08:28;;;;;;;3.33;0.80;;;;;;;18.55;56.61;99797.16;5053347;28;20048;-79
2023/07/13 04:10:54;;;;;;;4.40;1.13;;;;;;;18.61;56.22;99793.13;5044126;28;20640;-78
2023/07/13 04:13:19;;;;;;;4.82;1.40;;;;;;;18.47;56.46;99800.72;5053498;28;20025;-79
2023/07/13 04:15:44;;;;;;;3.25;1.23;;;;;;;18.52;57.13;99808.84;5014557;28;1132097;-79
2023/07/13 04:18:09;;;;;;;5.93;1.53;;;;;;;18.67;56.43;99805.66;5054529;28;20044;-79
2023/07/13 04:20:35;;;;;;;3.20;1.10;;;;;;;18.60;56.55;99810.03;5060982;28;20624;-79
2023/07/13 04:23:00;;;;;;;3.33;1.37;;;;;;;18.42;57.07;99809.97;5054629;28;20029;-79
2023/07/13 04:25:26;;;;;;;4.40;1.05;;;;;;;18.38;57.46;99808.97;5054444;28;20254;-79
2023/07/13 04:27:53;;;;;;;4.88;1.90;;;;;;;18.30;57.76;99814.13;5054502;28;20104;-75
2023/07/13 04:30:18;;;;;;;8.52;0.98;;;;;;;18.37;57.76;99818.34;5052837;28;20029;-76
2023/07/13 04:32:43;;;;;;;3.20;1.20;;;;;;;18.31;57.80;99818.50;5051792;28;20098;-76
2023/07/13 04:35:08;;;;;;;5.23;1.37;;;;;;;18.36;57.54;99816.75;5051897;28;21108;-75
2023/07/13 04:37:35;;;;;;;6.88;0.98;;;;;;;18.34;57.97;99817.06;5051532;28;20325;-79
2023/07/13 04:40:00;;;;;;;3.40;1.20;;;;;;;18.30;58.18;99819.66;5053373;28;20025;-79
2023/07/13 04:42:25;;;;;;;5.00;1.50;;;;;;;18.53;57.76;99818.78;5055134;28;20032;-79
2023/07/13 04:44:52;;;;;;;3.10;1.20;;;;;;;18.41;58.06;99824.88;5052195;28;20024;-79
2023/07/13 04:47:17;;;;;;;3.22;1.17;;;;;;;18.30;58.54;99824.34;5053675;28;20047;-79
2023/07/13 04:49:44;;;;;;;8.00;1.90;;;;;;;18.23;58.49;99819.25;5052956;28;20697;-79
2023/07/13 04:52:10;;;;;;;5.13;1.70;;;;;;;18.22;59.29;99825.94;5052936;28;20032;-78
2023/07/13 04:54:36;;;;;;;3.47;1.13;;;;;;;18.24;58.62;99828.34;5053040;28;20032;-80
2023/07/13 04:57:02;;;;;;;4.70;1.17;;;;;;;18.26;58.94;99824.16;5053344;28;20525;-78
2023/07/13 04:59:27;;;;;;;4.53;1.65;;;;;;;18.27;58.95;99824.97;5056636;28;20032;-78
2023/07/13 05:01:53;;;;;;;4.80;1.57;;;;;;;18.35;58.77;99828.88;5051957;28;20035;-79
2023/07/13 05:04:19;;;;;;;5.10;1.88;;;;;;;18.43;58.36;99820.66;5053255;28;20024;-78
2023/07/13 05:06:44;;;;;;;3.60;1.15;;;;;;;18.40;58.92;99828.78;5053651;28;20032;-79
2023/07/13 05:09:09;;;;;;;5.60;2.40;;;;;;;18.27;58.69;99822.19;5052291;28;20386;-78
2023/07/13 05:11:35;;;;;;;3.67;1.30;;;;;;;18.49;58.52;99835.13;5052966;28;20406;-78
2023/07/13 05:14:01;;;;;;;2.35;1.00;;;;;;;18.59;58.18;99830.50;5052752;28;20419;-79
2023/07/13 05:16:26;;;;;;;4.15;1.13;;;;;;;18.69;57.88;99835.75;5052086;28;20144;-79
2023/07/13 05:18:52;;;;;;;4.82;1.85;;;;;;;18.53;58.78;99846.38;5057376;28;20444;-78
2023/07/13 05:21:17;;;;;;;8.05;2.15;;;;;;;18.64;58.34;99844.97;5052819;28;20036;-79
2023/07/13 05:23:42;;;;;;;7.37;1.90;;;;;;;18.73;58.42;99844.19;5052589;28;20029;-79
2023/07/13 05:26:07;;;;;;;3.43;1.10;;;;;;;18.69;58.82;99848.72;5050787;28;20051;-79
2023/07/13 05:28:33;;;;;;;5.03;1.57;;;;;;;18.49;59.42;99850.91;5052311;28;20270;-77
2023/07/13 05:30:58;;;;;;;5.57;1.43;;;;;;;18.58;59.43;99850.94;5051952;28;20262;-78
2023/07/13 05:33:24;;;;;;;8.10;1.63;;;;;;;18.72;59.00;99846.13;5052352;28;20028;-79
2023/07/13 05:35:49;;;;;;;4.72;1.77;;;;;;;18.78;58.76;99850.38;5052416;28;20163;-79
2023/07/13 05:38:15;;;;;;;5.38;1.38;;;;;;;18.97;58.68;99854.03;5052451;28;20487;-76
2023/07/13 05:40:43;;;;;;;6.17;1.93;;;;;;;18.93;58.55;99856.63;5050153;28;20040;-76
2023/07/13 05:43:08;;;;;;;7.10;2.00;;;;;;;18.92;58.89;99854.97;5056688;28;20274;-75
2023/07/13 05:45:33;;;;;;;8.07;2.40;;;;;;;18.89;58.90;99861.16;5050885;28;20451;-76
2023/07/13 05:47:58;;;;;;;5.07;1.47;;;;;;;18.77;59.38;99857.03;5051100;28;20249;-75
2023/07/13 05:50:25;;;;;;;5.17;1.87;;;;;;;18.87;59.05;99863.41;5050069;28;20266;-76
2023/07/13 05:52:52;;;;;;;11.15;2.00;;;;;;;18.96;59.36;99867.03;5050126;28;20025;-76
2023/07/13 05:55:17;;;;;;;8.80;3.05;;;;;;;18.90;59.35;99868.28;5050424;28;20023;-76
2023/07/13 05:57:42;;;;;;;8.93;2.15;;;;;;;18.76;59.92;99860.94;5050029;28;20029;-76
2023/07/13 06:00:08;;;;;;;3.57;1.67;;;;;;;18.88;60.07;99870.56;5050168;28;20436;-76
2023/07/13 06:02:33;;;;;;;7.65;2.00;;;;;;;18.86;60.12;99878.34;5050286;28;20258;-76
2023/07/13 06:04:59;;;;;;;7.90;2.83;;;;;;;18.81;60.09;99867.44;5049783;28;20044;-76
2023/07/13 06:07:24;;;;;;;8.70;2.57;;;;;;;19.01;60.03;99869.66;5050511;28;20286;-76
2023/07/13 06:09:49;;;;;;;8.10;2.97;;;;;;;19.09;60.04;99875.50;5050151;28;20025;-75
2023/07/13 06:12:14;;;;;;;9.23;1.80;;;;;;;18.94;60.22;99882.28;5049711;28;20049;-75
2023/07/13 06:14:40;;;;;;;6.03;2.40;;;;;;;18.92;60.74;99882.59;5049899;28;20055;-76
2023/07/13 06:17:05;;;;;;;6.80;2.33;;;;;;;18.88;60.97;99882.44;5050284;28;20013;-76
2023/07/13 06:19:31;;;;;;;14.98;2.10;;;;;;;18.94;61.02;99880.34;5046539;28;20017;-76
2023/07/13 06:21:58;;;;;;;5.80;1.65;;;;;;;18.95;60.91;99881.16;5050016;28;20035;-76
2023/07/13 06:24:23;;;;;;;8.68;2.72;;;;;;;18.92;61.05;99877.06;5050577;28;20363;-76
2023/07/13 06:26:48;;;;;;;8.68;2.08;;;;;;;18.93;60.96;99883.41;5049740;28;20109;-76
2023/07/13 06:29:14;;;;;;;8.73;2.03;;;;;;;18.91;61.40;99886.50;5048639;28;20127;-75
2023/07/13 06:31:39;;;;;;;6.63;1.80;;;;;;;18.98;61.12;99889.63;5050584;28;20481;-75
2023/07/13 06:34:04;;;;;;;10.33;2.87;;;;;;;18.99;61.36;99894.03;5042895;28;20262;-71
2023/07/13 06:36:29;;;;;;;6.22;2.00;;;;;;;19.06;60.98;99888.00;5042276;28;20128;-70
2023/07/13 06:38:55;;;;;;;8.47;2.07;;;;;;;18.89;61.71;99895.13;5041936;28;20072;-69
2023/07/13 06:41:22;;;;;;;6.32;2.22;;;;;;;18.95;61.87;99893.03;5042440;28;21076;-73
2023/07/13 06:43:47;;;;;;;9.70;2.25;;;;;;;18.98;61.46;99900.66;5042123;28;20487;-71
2023/07/13 06:46:12;;;;;;;8.95;2.80;;;;;;;19.11;61.65;99898.13;5042256;28;20041;-70
2023/07/13 06:48:37;;;;;;;5.18;2.20;;;;;;;19.10;61.86;99899.25;5042126;28;20564;-75
2023/07/13 06:51:03;;;;;;;10.03;4.63;;;;;;;19.35;61.24;99902.44;5043023;28;20156;-75
2023/07/13 06:53:28;;;;;;;10.25;2.67;;;;;;;19.39;61.54;99902.59;5042522;28;20262;-77
2023/07/13 06:55:54;;;;;;;5.33;2.10;;;;;;;19.38;61.07;99909.28;5042307;28;20033;-75
2023/07/13 06:58:19;;;;;;;7.17;2.23;;;;;;;19.44;61.25;99906.06;5043262;28;20284;-72
2023/07/13 07:00:44;;;;;;;6.43;1.65;;;;;;;19.31;61.21;99910.56;5041290;28;20270;-72
2023/07/13 07:03:10;;;;;;;8.48;2.53;;;;;;;19.35;61.33;99921.78;5042006;28;21201;-71
2023/07/13 07:05:35;;;;;;;6.13;2.30;;;;;;;19.32;61.21;99919.69;5042044;28;20040;-72
2023/07/13 07:08:01;;;;;;;10.10;4.33;;;;;;;19.38;61.43;99926.69;5043054;28;20353;-73
2023/07/13 07:10:31;;;;;;;4.97;2.38;;;;;;;19.61;61.26;99921.03;5045925;28;20270;-69
2023/07/13 07:12:56;;;;;;;6.60;2.30;;;;;;;19.63;60.99;99916.00;5046078;28;20037;-71
2023/07/13 07:15:22;;;;;;;12.43;2.73;;;;;;;19.76;60.48;99918.94;5045794;28;20051;-70
2023/07/13 07:17:47;;;;;;;7.38;1.63;;;;;;;19.52;60.62;99928.50;5045330;28;20037;-72
2023/07/13 07:20:13;;;;;;;9.07;1.97;;;;;;;19.75;60.26;99922.84;5045730;28;20036;-67
2023/07/13 07:22:38;;;;;;;9.23;3.28;;;;;;;19.80;60.45;99928.22;5045507;28;20133;-68
2023/07/13 07:25:04;;;;;;;9.87;2.73;;;;;;;19.93;60.05;99930.00;5045855;28;20694;-71
2023/07/13 07:27:30;;;;;;;6.65;2.03;;;;;;;20.06;59.93;99921.88;5045060;28;20392;-71
2023/07/13 07:29:57;;;;;;;18.17;2.90;;;;;;;20.18;59.68;99924.84;5044561;28;20144;-71
2023/07/13 07:32:23;;;;;;;8.85;2.80;;;;;;;20.11;59.52;99921.75;5045388;28;20520;-71
2023/07/13 07:34:48;;;;;;;5.55;1.85;;;;;;;20.10;59.70;99928.41;5044724;28;20068;-69
2023/07/13 07:37:14;;;;;;;5.93;2.15;;;;;;;20.18;59.57;99935.09;5045007;28;20071;-68
2023/07/13 07:39:39;;;;;;;5.07;1.77;;;;;;;20.13;59.33;99924.19;5044747;28;20123;-68
2023/07/13 07:42:05;;;;;;;6.35;2.20;;;;;;;20.23;59.77;99920.28;5046732;28;20033;-73
2023/07/13 07:44:31;;;;;;;7.55;1.77;;;;;;;20.42;59.02;99928.25;5046099;28;20104;-73
2023/07/13 07:46:57;;;;;;;5.65;2.65;;;;;;;20.37;59.02;99925.63;5047405;28;20492;-71
2023/07/13 07:49:22;;;;;;;12.27;2.65;;;;;;;20.47;59.31;99922.53;5044739;28;20032;-71
2023/07/13 07:51:48;;;;;;;7.65;1.85;;;;;;;20.28;59.22;99917.34;5046239;28;20036;-72
2023/07/13 07:54:14;;;;;;;7.45;2.55;;;;;;;20.48;59.09;99926.13;5046124;28;20144;-73
2023/07/13 07:56:40;;;;;;;10.57;2.45;;;;;;;20.47;59.13;99925.31;5046062;28;20047;-72
2023/07/13 07:59:05;;;;;;;10.98;3.58;;;;;;;20.73;59.00;99929.13;5046014;28;20037;-73
2023/07/13 08:01:30;;;;;;;11.80;2.03;;;;;;;20.82;58.43;99929.94;5046186;28;20036;-73
2023/07/13 08:03:56;;;;;;;7.13;2.10;;;;;;;20.95;58.15;99927.31;5046053;28;20647;-72
2023/07/13 08:06:21;;;;;;;9.13;3.10;;;;;;;20.84;58.21;99926.84;5046005;28;21276;-73
2023/07/13 08:08:47;;;;;;;10.57;3.13;;;;;;;20.62;58.25;99935.06;5047237;28;21176;-76
2023/07/13 08:11:12;;;;;;;4.63;1.77;;;;;;;20.51;58.47;99929.03;5048470;28;20501;-76
2023/07/13 08:13:38;;;;;;;6.10;2.22;;;;;;;20.57;58.39;99932.44;5046315;28;20677;-76
2023/07/13 08:16:06;;;;;;;6.32;1.70;;;;;;;20.72;58.07;99936.66;5026353;28;20124;-76
2023/07/13 08:18:32;;;;;;;10.43;2.97;;;;;;;20.77;57.74;99932.88;5024930;28;20102;-76
2023/07/13 08:20:58;;;;;;;3.90;1.73;;;;;;;20.79;58.16;99925.06;5024613;28;20483;-76
2023/07/13 08:23:25;;;;;;;7.53;3.33;;;;;;;20.75;58.04;99918.53;5025284;28;20033;-76
2023/07/13 08:25:53;;;;;;;7.03;2.55;;;;;;;20.91;58.58;99923.56;5025138;28;20064;-76
2023/07/13 08:28:20;;;;;;;9.43;3.13;;;;;;;20.85;58.08;99923.72;5025001;28;20040;-76
2023/07/13 08:30:48;;;;;;;4.00;1.70;;;;;;;20.63;57.95;99925.59;5026423;28;20107;-77
2023/07/13 08:33:14;;;;;;;5.28;2.47;;;;;;;20.71;57.89;99920.34;5026559;28;20123;-78
2023/07/13 08:35:40;;;;;;;7.82;2.42;;;;;;;20.77;58.00;99910.72;5025652;28;20037;-77
2023/07/13 08:38:05;;;;;;;5.57;1.73;;;;;;;21.04;57.82;99921.75;5026683;28;20033;-77
2023/07/13 08:40:30;;;;;;;5.40;1.83;;;;;;;21.29;57.37;99917.22;5025685;28;20040;-77
2023/07/13 08:42:58;;;;;;;4.37;2.10;;;;;;;21.33;56.86;99925.69;5026486;28;20860;-80
2023/07/13 08:45:43;;;;;;;27.48;2.83;;;;;;;21.12;56.17;99923.66;5026303;28;20475;-79
2023/07/13 08:48:13;;;;;;;5.72;2.63;;;;;;;21.02;56.84;99919.31;5027246;28;20442;-79
2023/07/13 08:50:57;;;;;;;5.88;2.40;;;;;;;21.01;56.75;99914.09;5026787;28;20046;-77
2023/07/13 08:53:28;;;;;;;6.85;2.30;;;;;;;21.09;57.22;99921.56;5026903;28;20071;-79
2023/07/13 08:55:58;;;;;;;4.18;2.00;;;;;;;21.27;56.91;99922.31;5027232;28;20034;-82
2023/07/13 08:58:28;;;;;;;8.32;2.95;;;;;;;21.31;56.63;99916.91;5027323;28;20170;-77
2023/07/13 09:01:12;;;;;;;6.90;2.90;;;;;;;21.56;56.97;99915.09;5025543;28;20160;-77
2023/07/13 09:04:07;;;;;;;7.68;2.08;;;;;;;21.58;56.28;99918.34;5025153;28;20041;-78
2023/07/13 09:06:55;;;;;;;6.78;1.88;;;;;;;21.48;55.36;99917.94;5024519;28;20102;-78
2023/07/13 09:09:32;;;;;;;4.85;1.90;;;;;;;21.24;55.61;99922.94;5023932;28;20036;-71
2023/07/13 09:12:08;;;;;;;12.13;3.30;;;;;;;21.52;55.37;99916.91;5021073;28;20135;-70
2023/07/13 09:14:55;;;;;;;7.28;1.98;;;;;;;21.62;54.77;99921.25;5031625;28;20052;-72
2023/07/13 09:17:26;;;;;;;6.53;2.50;;;;;;;21.76;54.83;99914.66;5045189;28;20029;-74
2023/07/13 09:20:01;;;;;;;4.90;2.47;;;;;;;22.04;54.83;99916.91;5046737;28;20025;-79
2023/07/13 09:22:29;;;;;;;8.35;2.22;;;;;;;22.19;54.41;99918.25;5046385;28;20036;-78
2023/07/13 09:25:20;;;;;;;4.70;2.15;;;;;;;21.94;54.15;99909.81;5046786;28;21172;-79
2023/07/13 09:27:47;;;;;;;9.82;3.05;;;;;;;21.86;54.12;99919.84;5043062;28;20107;-81
2023/07/13 09:30:15;;;;;;;8.98;2.83;;;;;;;22.18;53.63;99919.41;5047822;28;20044;-82
2023/07/13 09:32:44;;;;;;;24.83;3.60;;;;;;;22.25;53.67;99928.00;5049746;28;20056;-82
2023/07/13 09:35:15;;;;;;;16.50;3.55;;;;;;;22.00;53.96;99919.56;5048859;28;20068;-81
2023/07/13 09:37:44;;;;;;;15.15;2.53;;;;;;;21.91;53.73;99922.41;5044195;28;20037;-75
2023/07/13 09:40:25;;;;;;;5.63;2.17;;;;;;;21.74;53.35;99920.56;5042667;28;20041;-75
2023/07/13 09:42:53;;;;;;;6.50;1.90;;;;;;;21.81;54.05;99922.78;5043162;28;20039;-75
2023/07/13 09:45:28;;;;;;;4.85;2.22;;;;;;;22.07;54.29;99921.00;5042320;28;20033;-75
2023/07/13 09:48:03;;;;;;;6.18;2.20;;;;;;;22.08;54.26;99928.97;5042876;28;20032;-74
2023/07/13 09:50:29;;;;;;;11.63;3.70;;;;;;;22.11;54.02;99925.50;5042205;28;20045;-75
2023/07/13 09:52:58;;;;;;;24.30;3.35;;;;;;;22.26;53.61;99917.69;5043137;28;20036;-74
2023/07/13 09:55:31;;;;;;;6.60;1.73;;;;;;;22.36;53.49;99913.69;5042831;28;20037;-74
2023/07/13 09:57:57;;;;;;;8.60;3.03;;;;;;;22.46;53.58;99924.38;5042103;28;20064;-75
2023/07/13 10:00:26;;;;;;;5.55;2.05;;;;;;;22.35;52.90;99915.63;5042084;28;20132;-75
2023/07/13 10:03:23;;;;;;;8.40;2.50;;;;;;;22.38;53.39;99916.94;5042415;28;20037;-75
2023/07/13 10:05:52;;;;;;;4.10;1.67;;;;;;;22.64;52.95;99924.19;5042270;28;20053;-74
2023/07/13 10:08:30;;;;;;;7.15;1.95;;;;;;;22.54;52.30;99924.63;5042202;28;20941;-74
2023/07/13 10:11:00;;;;;;;11.85;2.55;;;;;;;22.61;52.75;99927.66;5042953;28;20033;-75
2023/07/13 10:13:36;;;;;;;5.85;1.83;;;;;;;22.27;53.38;99936.00;5042529;28;20086;-74
2023/07/13 10:16:05;;;;;;;6.15;2.40;;;;;;;22.16;54.17;99933.63;5042904;28;20052;-76
2023/07/13 10:18:35;;;;;;;17.73;3.47;;;;;;;22.59;53.45;99927.19;5041966;28;20390;-75
2023/07/13 10:21:14;;;;;;;10.27;1.98;;;;;;;22.39;52.45;99929.69;5042387;28;20033;-75
2023/07/13 10:23:41;;;;;;;10.65;3.28;;;;;;;22.32;52.98;99943.28;5041871;28;20040;-75
2023/07/13 10:26:14;;;;;;;9.85;3.00;;;;;;;22.50;52.48;99941.16;5042866;28;20037;-75
2023/07/13 10:28:42;;;;;;;5.25;1.83;;;;;;;22.84;52.11;99938.41;5041895;28;20033;-74
2023/07/13 10:31:13;;;;;;;14.18;2.80;;;;;;;23.03;51.68;99934.22;5042202;28;20079;-75
2023/07/13 10:33:38;;;;;;;9.90;3.05;;;;;;;22.83;51.84;99934.78;5043336;28;20103;-75
2023/07/13 10:36:16;;;;;;;8.27;2.25;;;;;;;22.78;51.65;99946.13;5042267;28;20486;-75
2023/07/13 10:38:42;;;;;;;16.55;5.07;;;;;;;22.51;52.40;99940.84;5041808;28;21088;-79
2023/07/13 10:41:19;;;;;;;31.85;16.00;;;;;;;22.70;52.62;99945.06;5041961;28;20041;-76
2023/07/13 10:43:50;;;;;;;8.35;3.58;;;;;;;23.17;52.12;99940.28;5044641;28;20040;-74
2023/07/13 10:46:19;;;;;;;10.20;2.55;;;;;;;23.44;51.17;99943.56;5045938;28;20037;-76
2023/07/13 10:48:49;;;;;;;13.32;2.35;;;;;;;23.07;51.65;99943.50;5045123;28;20061;-74
2023/07/13 10:51:17;;;;;;;4.45;2.25;;;;;;;23.29;50.56;99955.34;5045778;28;20037;-77
2023/07/13 10:53:43;;;;;;;5.55;2.28;;;;;;;23.14;51.01;99946.53;5045604;28;20040;-75
2023/07/13 10:56:30;;;;;;;7.43;2.40;;;;;;;23.10;50.42;99956.72;5046757;28;20036;-76
2023/07/13 10:59:16;;;;;;;15.68;3.67;;;;;;;23.02;50.47;99954.84;5047387;28;20033;-78
2023/07/13 11:01:56;;;;;;;4.75;2.10;;;;;;;22.74;50.53;99965.44;5045580;28;20037;-75
2023/07/13 11:04:23;;;;;;;8.90;2.72;;;;;;;22.73;51.09;99955.50;5046582;28;20037;-79
2023/07/13 11:06:52;;;;;;;7.55;2.40;;;;;;;22.86;51.10;99963.88;5046924;28;20033;-79
2023/07/13 11:09:37;;;;;;;3.67;1.55;;;;;;;22.57;50.72;99969.19;5046481;28;20214;-79
2023/07/13 11:12:09;;;;;;;7.30;2.10;;;;;;;22.55;51.04;99960.41;5045787;28;20470;-78
2023/07/13 11:14:43;;;;;;;4.97;2.45;;;;;;;22.63;50.46;99959.50;5046359;28;20860;-78
2023/07/13 11:17:27;;;;;;;5.03;2.10;;;;;;;22.67;50.80;99954.09;5046977;28;20033;-78
2023/07/13 11:19:53;;;;;;;4.70;1.70;;;;;;;22.73;51.02;99963.84;5047418;28;20078;-78
2023/07/13 11:22:23;;;;;;;6.55;1.85;;;;;;;22.86;50.14;99956.31;5047161;28;20037;-77
2023/07/13 11:24:51;;;;;;;3.03;1.83;;;;;;;22.78;50.63;99964.78;5046895;28;20498;-78
2023/07/13 11:27:44;;;;;;;6.30;1.75;;;;;;;22.82;50.23;99958.16;5047202;28;20159;-79
2023/07/13 11:30:32;;;;;;;4.05;1.70;;;;;;;23.01;49.95;99964.34;5046268;28;20121;-78
2023/07/13 11:33:12;;;;;;;3.67;2.38;;;;;;;22.98;50.17;99960.31;5046939;28;20724;-79
2023/07/13 11:35:44;;;;;;;6.72;2.75;;;;;;;23.32;49.88;99957.44;5046948;28;20661;-79